sensor_id;sensor_type;location;lat;lon;timestamp;P1;durP1;ratioP1;P2;durP2;ratioP2
23400;SDS011;11873;49.300;8.920;2023-07-31T00:02:26;2.40;;;1.37;;
23400;SDS011;11873;49.300;8.920;2023-07-31T00:07:26;1.27;;;1.17;;
23400;SDS011;11873;49.300;8.920;2023-07-31T00:12:26;4.27;;;1.73;;
23400;SDS011;11873;49.300;8.920;2023-07-31T00:17:27;4.00;;;1.57;;
23400;SDS011;11873;49.300;8.920;2023-07-31T00:22:27;4.93;;;1.53;;
23400;SDS011;11873;49.300;8.920;2023-07-31T00:27:27;4.00;;;1.63;;
23400;SDS011;11873;49.300;8.920;2023-07-31T00:32:27;2.17;;;1.40;;
23400;SDS011;11873;49.300;8.920;2023-07-31T00:37:27;3.63;;;1.37;;
23400;SDS011;11873;49.300;8.920;2023-07-31T00:42:27;1.40;;;1.30;;
23400;SDS011;11873;49.300;8.920;2023-07-31T00:47:28;4.03;;;1.37;;
23400;SDS011;11873;49.300;8.920;2023-07-31T00:52:28;3.50;;;1.40;;
23400;SDS011;11873;49.300;8.920;2023-07-31T00:57:28;3.30;;;1.47;;
23400;SDS011;11873;49.300;8.920;2023-07-31T01:02:29;1.40;;;1.30;;
23400;SDS011;11873;49.300;8.920;2023-07-31T01:07:31;1.50;;;1.20;;
23400;SDS011;11873;49.300;8.920;2023-07-31T01:12:33;1.40;;;1.20;;
23400;SDS011;11873;49.300;8.920;2023-07-31T01:17:34;3.53;;;1.20;;
23400;SDS011;11873;49.300;8.920;2023-07-31T01:27:40;1.57;;;1.33;;
23400;SDS011;11873;49.300;8.920;2023-07-31T01:32:44;1.87;;;1.50;;
23400;SDS011;11873;49.300;8.920;2023-07-31T01:37:45;1.77;;;1.03;;
23400;SDS011;11873;49.300;8.920;2023-07-31T01:42:46;3.83;;;1.43;;
23400;SDS011;11873;49.300;8.920;2023-07-31T01:47:46;4.33;;;1.27;;
23400;SDS011;11873;49.300;8.920;2023-07-31T01:52:46;1.73;;;1.10;;
23400;SDS011;11873;49.300;8.920;2023-07-31T01:57:46;1.13;;;1.00;;
23400;SDS011;11873;49.300;8.920;2023-07-31T02:02:46;1.67;;;1.27;;
23400;SDS011;11873;49.300;8.920;2023-07-31T02:07:47;2.20;;;1.20;;
23400;SDS011;11873;49.300;8.920;2023-07-31T02:12:47;1.97;;;1.43;;
23400;SDS011;11873;49.300;8.920;2023-07-31T02:17:47;1.63;;;1.30;;
23400;SDS011;11873;49.300;8.920;2023-07-31T02:22:47;1.47;;;1.37;;
23400;SDS011;11873;49.300;8.920;2023-07-31T02:27:47;1.93;;;1.50;;
23400;SDS011;11873;49.300;8.920;2023-07-31T02:32:48;3.83;;;1.63;;
23400;SDS011;11873;49.300;8.920;2023-07-31T02:37:48;2.27;;;1.40;;
23400;SDS011;11873;49.300;8.920;2023-07-31T02:42:48;3.90;;;2.03;;
23400;SDS011;11873;49.300;8.920;2023-07-31T02:47:48;1.30;;;1.20;;
23400;SDS011;11873;49.300;8.920;2023-07-31T02:52:48;2.87;;;1.40;;
23400;SDS011;11873;49.300;8.920;2023-07-31T02:57:48;3.73;;;1.03;;
23400;SDS011;11873;49.300;8.920;2023-07-31T03:02:49;4.80;;;1.50;;
23400;SDS011;11873;49.300;8.920;2023-07-31T03:07:49;1.60;;;1.33;;
23400;SDS011;11873;49.300;8.920;2023-07-31T03:12:49;1.83;;;1.23;;
23400;SDS011;11873;49.300;8.920;2023-07-31T03:17:49;2.00;;;1.27;;
23400;SDS011;11873;49.300;8.920;2023-07-31T03:22:49;3.20;;;1.80;;
23400;SDS011;11873;49.300;8.920;2023-07-31T03:27:50;1.63;;;1.40;;
23400;SDS011;11873;49.300;8.920;2023-07-31T03:32:50;4.10;;;1.63;;
23400;SDS011;11873;49.300;8.920;2023-07-31T03:37:50;1.60;;;1.30;;
23400;SDS011;11873;49.300;8.920;2023-07-31T03:42:50;1.40;;;1.30;;
23400;SDS011;11873;49.300;8.920;2023-07-31T03:47:50;1.43;;;1.20;;
23400;SDS011;11873;49.300;8.920;2023-07-31T03:52:51;1.60;;;1.40;;
23400;SDS011;11873;49.300;8.920;2023-07-31T03:57:51;1.30;;;1.20;;
23400;SDS011;11873;49.300;8.920;2023-07-31T04:02:51;1.80;;;1.27;;
23400;SDS011;11873;49.300;8.920;2023-07-31T04:07:51;3.37;;;1.23;;
23400;SDS011;11873;49.300;8.920;2023-07-31T04:12:51;0.87;;;0.80;;
23400;SDS011;11873;49.300;8.920;2023-07-31T04:17:51;1.73;;;1.37;;
23400;SDS011;11873;49.300;8.920;2023-07-31T04:22:52;2.43;;;1.30;;
23400;SDS011;11873;49.300;8.920;2023-07-31T04:27:52;1.70;;;1.60;;
23400;SDS011;11873;49.300;8.920;2023-07-31T04:32:52;0.93;;;0.93;;
23400;SDS011;11873;49.300;8.920;2023-07-31T04:37:52;1.87;;;0.93;;
23400;SDS011;11873;49.300;8.920;2023-07-31T04:42:52;1.00;;;1.00;;
23400;SDS011;11873;49.300;8.920;2023-07-31T04:47:53;1.93;;;1.23;;
23400;SDS011;11873;49.300;8.920;2023-07-31T04:52:53;1.37;;;1.27;;
23400;SDS011;11873;49.300;8.920;2023-07-31T04:57:53;1.33;;;1.20;;
23400;SDS011;11873;49.300;8.920;2023-07-31T05:02:53;1.37;;;1.20;;
23400;SDS011;11873;49.300;8.920;2023-07-31T05:07:53;4.10;;;1.23;;
23400;SDS011;11873;49.300;8.920;2023-07-31T05:12:53;1.73;;;1.53;;
23400;SDS011;11873;49.300;8.920;2023-07-31T05:17:54;1.53;;;1.40;;
23400;SDS011;11873;49.300;8.920;2023-07-31T05:22:54;2.13;;;1.37;;
23400;SDS011;11873;49.300;8.920;2023-07-31T05:27:54;3.13;;;1.23;;
23400;SDS011;11873;49.300;8.920;2023-07-31T05:32:54;1.57;;;1.03;;
23400;SDS011;11873;49.300;8.920;2023-07-31T05:37:54;1.47;;;1.30;;
23400;SDS011;11873;49.300;8.920;2023-07-31T05:42:54;0.97;;;0.97;;
23400;SDS011;11873;49.300;8.920;2023-07-31T05:47:55;2.77;;;1.57;;
23400;SDS011;11873;49.300;8.920;2023-07-31T05:52:55;4.47;;;1.67;;
23400;SDS011;11873;49.300;8.920;2023-07-31T05:57:55;1.30;;;1.20;;
23400;SDS011;11873;49.300;8.920;2023-07-31T06:02:55;2.33;;;1.53;;
23400;SDS011;11873;49.300;8.920;2023-07-31T06:07:56;3.40;;;1.70;;
23400;SDS011;11873;49.300;8.920;2023-07-31T06:12:56;2.00;;;1.30;;
23400;SDS011;11873;49.300;8.920;2023-07-31T06:17:56;3.03;;;1.57;;
23400;SDS011;11873;49.300;8.920;2023-07-31T06:22:56;1.63;;;1.43;;
23400;SDS011;11873;49.300;8.920;2023-07-31T06:27:57;1.50;;;1.37;;
23400;SDS011;11873;49.300;8.920;2023-07-31T06:32:57;2.77;;;1.43;;
23400;SDS011;11873;49.300;8.920;2023-07-31T06:37:57;2.57;;;1.43;;
23400;SDS011;11873;49.300;8.920;2023-07-31T06:42:57;1.80;;;1.67;;
23400;SDS011;11873;49.300;8.920;2023-07-31T06:47:57;2.92;;;1.65;;
23400;SDS011;11873;49.300;8.920;2023-07-31T06:52:58;2.13;;;1.30;;
23400;SDS011;11873;49.300;8.920;2023-07-31T06:57:58;3.73;;;1.30;;
23400;SDS011;11873;49.300;8.920;2023-07-31T07:02:58;1.40;;;1.30;;
23400;SDS011;11873;49.300;8.920;2023-07-31T07:07:58;2.03;;;1.30;;
23400;SDS011;11873;49.300;8.920;2023-07-31T07:12:58;5.50;;;1.77;;
23400;SDS011;11873;49.300;8.920;2023-07-31T07:17:59;1.57;;;1.47;;
23400;SDS011;11873;49.300;8.920;2023-07-31T07:22:59;1.93;;;1.50;;
23400;SDS011;11873;49.300;8.920;2023-07-31T07:27:59;1.87;;;1.50;;
23400;SDS011;11873;49.300;8.920;2023-07-31T07:32:59;1.57;;;1.47;;
23400;SDS011;11873;49.300;8.920;2023-07-31T07:37:59;2.20;;;1.50;;
23400;SDS011;11873;49.300;8.920;2023-07-31T07:42:59;2.30;;;1.80;;
23400;SDS011;11873;49.300;8.920;2023-07-31T07:48:00;1.93;;;1.60;;
23400;SDS011;11873;49.300;8.920;2023-07-31T07:53:00;3.30;;;1.23;;
23400;SDS011;11873;49.300;8.920;2023-07-31T07:58:00;2.67;;;1.70;;
23400;SDS011;11873;49.300;8.920;2023-07-31T08:03:00;2.83;;;1.80;;
23400;SDS011;11873;49.300;8.920;2023-07-31T08:08:00;1.60;;;1.27;;
23400;SDS011;11873;49.300;8.920;2023-07-31T08:13:01;2.57;;;1.27;;
23400;SDS011;11873;49.300;8.920;2023-07-31T08:18:01;3.00;;;1.30;;
23400;SDS011;11873;49.300;8.920;2023-07-31T08:23:01;3.07;;;1.57;;
23400;SDS011;11873;49.300;8.920;2023-07-31T08:28:02;2.10;;;1.40;;
23400;SDS011;11873;49.300;8.920;2023-07-31T08:33:02;1.97;;;1.50;;
23400;SDS011;11873;49.300;8.920;2023-07-31T08:38:02;2.93;;;1.43;;
23400;SDS011;11873;49.300;8.920;2023-07-31T08:43:02;3.13;;;1.60;;
23400;SDS011;11873;49.300;8.920;2023-07-31T08:48:03;1.43;;;1.30;;
23400;SDS011;11873;49.300;8.920;2023-07-31T08:53:03;1.70;;;1.23;;
23400;SDS011;11873;49.300;8.920;2023-07-31T08:58:04;3.20;;;1.23;;
23400;SDS011;11873;49.300;8.920;2023-07-31T09:03:14;2.93;;;1.60;;
23400;SDS011;11873;49.300;8.920;2023-07-31T09:08:17;2.73;;;1.60;;
23400;SDS011;11873;49.300;8.920;2023-07-31T09:13:18;4.17;;;1.63;;
23400;SDS011;11873;49.300;8.920;2023-07-31T09:18:18;1.93;;;1.50;;
23400;SDS011;11873;49.300;8.920;2023-07-31T09:23:18;1.70;;;1.60;;
23400;SDS011;11873;49.300;8.920;2023-07-31T09:28:18;3.57;;;1.70;;
23400;SDS011;11873;49.300;8.920;2023-07-31T09:33:19;3.73;;;2.00;;
23400;SDS011;11873;49.300;8.920;2023-07-31T09:38:23;1.53;;;1.43;;
23400;SDS011;11873;49.300;8.920;2023-07-31T09:43:24;2.73;;;1.80;;
23400;SDS011;11873;49.300;8.920;2023-07-31T09:48:24;2.80;;;1.57;;
23400;SDS011;11873;49.300;8.920;2023-07-31T09:53:28;5.57;;;1.93;;
23400;SDS011;11873;49.300;8.920;2023-07-31T09:58:28;2.23;;;1.37;;
23400;SDS011;11873;49.300;8.920;2023-07-31T10:03:29;3.20;;;1.67;;
23400;SDS011;11873;49.300;8.920;2023-07-31T10:08:31;2.57;;;1.80;;
23400;SDS011;11873;49.300;8.920;2023-07-31T10:13:33;3.43;;;2.10;;
23400;SDS011;11873;49.300;8.920;2023-07-31T10:18:33;2.70;;;1.97;;
23400;SDS011;11873;49.300;8.920;2023-07-31T10:23:34;2.53;;;1.77;;
23400;SDS011;11873;49.300;8.920;2023-07-31T10:28:35;2.63;;;1.80;;
23400;SDS011;11873;49.300;8.920;2023-07-31T10:33:36;1.57;;;1.47;;
23400;SDS011;11873;49.300;8.920;2023-07-31T10:38:36;2.13;;;1.93;;
23400;SDS011;11873;49.300;8.920;2023-07-31T10:43:37;2.57;;;1.93;;
23400;SDS011;11873;49.300;8.920;2023-07-31T10:48:38;3.10;;;1.80;;
23400;SDS011;11873;49.300;8.920;2023-07-31T10:53:39;1.97;;;1.80;;
23400;SDS011;11873;49.300;8.920;2023-07-31T10:58:39;3.07;;;2.07;;
23400;SDS011;11873;49.300;8.920;2023-07-31T11:03:49;2.97;;;1.57;;
23400;SDS011;11873;49.300;8.920;2023-07-31T11:08:50;5.80;;;2.17;;
23400;SDS011;11873;49.300;8.920;2023-07-31T11:13:51;1.93;;;1.77;;
23400;SDS011;11873;49.300;8.920;2023-07-31T11:18:52;2.60;;;2.20;;
23400;SDS011;11873;49.300;8.920;2023-07-31T11:23:53;5.67;;;2.30;;
23400;SDS011;11873;49.300;8.920;2023-07-31T11:28:55;3.77;;;2.00;;
23400;SDS011;11873;49.300;8.920;2023-07-31T11:34:05;2.00;;;1.80;;
23400;SDS011;11873;49.300;8.920;2023-07-31T11:39:06;3.13;;;1.90;;
23400;SDS011;11873;49.300;8.920;2023-07-31T11:44:07;1.43;;;1.33;;
23400;SDS011;11873;49.300;8.920;2023-07-31T11:49:07;5.30;;;2.30;;
23400;SDS011;11873;49.300;8.920;2023-07-31T11:54:08;2.07;;;1.53;;
23400;SDS011;11873;49.300;8.920;2023-07-31T11:59:08;3.47;;;1.85;;
23400;SDS011;11873;49.300;8.920;2023-07-31T12:04:08;2.33;;;1.90;;
23400;SDS011;11873;49.300;8.920;2023-07-31T12:09:09;3.23;;;1.97;;
23400;SDS011;11873;49.300;8.920;2023-07-31T12:14:19;2.47;;;1.40;;
23400;SDS011;11873;49.300;8.920;2023-07-31T12:19:19;6.00;;;2.50;;
23400;SDS011;11873;49.300;8.920;2023-07-31T12:24:19;4.33;;;1.83;;
23400;SDS011;11873;49.300;8.920;2023-07-31T12:29:20;1.93;;;1.80;;
23400;SDS011;11873;49.300;8.920;2023-07-31T12:34:20;1.13;;;1.03;;
23400;SDS011;11873;49.300;8.920;2023-07-31T12:39:20;0.90;;;0.90;;
23400;SDS011;11873;49.300;8.920;2023-07-31T12:44:20;1.77;;;1.60;;
23400;SDS011;11873;49.300;8.920;2023-07-31T12:49:21;3.23;;;1.93;;
23400;SDS011;11873;49.300;8.920;2023-07-31T12:54:21;7.33;;;1.90;;
23400;SDS011;11873;49.300;8.920;2023-07-31T12:59:21;2.17;;;1.83;;
23400;SDS011;11873;49.300;8.920;2023-07-31T13:04:21;4.60;;;1.90;;
23400;SDS011;11873;49.300;8.920;2023-07-31T13:09:22;2.00;;;1.23;;
23400;SDS011;11873;49.300;8.920;2023-07-31T13:14:22;2.07;;;1.83;;
23400;SDS011;11873;49.300;8.920;2023-07-31T13:19:22;3.40;;;1.40;;
23400;SDS011;11873;49.300;8.920;2023-07-31T13:24:22;2.53;;;1.50;;
23400;SDS011;11873;49.300;8.920;2023-07-31T13:29:22;1.70;;;1.53;;
23400;SDS011;11873;49.300;8.920;2023-07-31T13:34:22;2.07;;;1.10;;
23400;SDS011;11873;49.300;8.920;2023-07-31T13:39:23;2.10;;;1.87;;
23400;SDS011;11873;49.300;8.920;2023-07-31T13:44:23;2.73;;;1.60;;
23400;SDS011;11873;49.300;8.920;2023-07-31T13:49:23;3.20;;;1.80;;
23400;SDS011;11873;49.300;8.920;2023-07-31T13:54:23;4.60;;;1.77;;
23400;SDS011;11873;49.300;8.920;2023-07-31T13:59:23;3.30;;;1.63;;
23400;SDS011;11873;49.300;8.920;2023-07-31T14:04:23;1.13;;;1.03;;
23400;SDS011;11873;49.300;8.920;2023-07-31T14:09:24;4.53;;;2.10;;
23400;SDS011;11873;49.300;8.920;2023-07-31T14:14:24;2.10;;;1.43;;
23400;SDS011;11873;49.300;8.920;2023-07-31T14:19:24;2.47;;;1.97;;
23400;SDS011;11873;49.300;8.920;2023-07-31T14:24:24;1.87;;;1.77;;
23400;SDS011;11873;49.300;8.920;2023-07-31T14:29:24;2.50;;;1.93;;
23400;SDS011;11873;49.300;8.920;2023-07-31T14:34:24;2.13;;;1.20;;
23400;SDS011;11873;49.300;8.920;2023-07-31T14:39:25;2.87;;;1.43;;
23400;SDS011;11873;49.300;8.920;2023-07-31T14:44:25;1.00;;;1.00;;
23400;SDS011;11873;49.300;8.920;2023-07-31T14:49:25;2.23;;;1.53;;
23400;SDS011;11873;49.300;8.920;2023-07-31T14:54:25;2.03;;;1.83;;
23400;SDS011;11873;49.300;8.920;2023-07-31T14:59:25;1.97;;;1.67;;
23400;SDS011;11873;49.300;8.920;2023-07-31T15:04:28;1.40;;;1.30;;
23400;SDS011;11873;49.300;8.920;2023-07-31T15:09:28;2.10;;;1.50;;
23400;SDS011;11873;49.300;8.920;2023-07-31T15:14:28;5.67;;;1.90;;
23400;SDS011;11873;49.300;8.920;2023-07-31T15:19:29;4.50;;;2.20;;
23400;SDS011;11873;49.300;8.920;2023-07-31T15:24:29;4.00;;;1.90;;
23400;SDS011;11873;49.300;8.920;2023-07-31T15:29:29;3.80;;;2.10;;
23400;SDS011;11873;49.300;8.920;2023-07-31T15:34:30;5.03;;;1.80;;
23400;SDS011;11873;49.300;8.920;2023-07-31T15:39:30;2.23;;;1.90;;
23400;SDS011;11873;49.300;8.920;2023-07-31T15:44:30;3.13;;;1.63;;
23400;SDS011;11873;49.300;8.920;2023-07-31T15:49:30;3.37;;;2.27;;
23400;SDS011;11873;49.300;8.920;2023-07-31T15:54:30;2.47;;;1.83;;
23400;SDS011;11873;49.300;8.920;2023-07-31T15:59:31;3.10;;;2.43;;
23400;SDS011;11873;49.300;8.920;2023-07-31T16:04:31;2.47;;;1.87;;
23400;SDS011;11873;49.300;8.920;2023-07-31T16:09:31;4.23;;;2.00;;
23400;SDS011;11873;49.300;8.920;2023-07-31T16:14:31;2.70;;;1.50;;
23400;SDS011;11873;49.300;8.920;2023-07-31T16:19:31;2.50;;;1.77;;
23400;SDS011;11873;49.300;8.920;2023-07-31T16:24:31;4.60;;;2.07;;
23400;SDS011;11873;49.300;8.920;2023-07-31T16:29:32;3.10;;;1.53;;
23400;SDS011;11873;49.300;8.920;2023-07-31T16:34:32;4.60;;;2.00;;
23400;SDS011;11873;49.300;8.920;2023-07-31T16:39:32;2.07;;;1.73;;
23400;SDS011;11873;49.300;8.920;2023-07-31T16:44:32;1.80;;;1.57;;
23400;SDS011;11873;49.300;8.920;2023-07-31T16:49:32;2.77;;;1.80;;
23400;SDS011;11873;49.300;8.920;2023-07-31T16:54:33;2.77;;;1.93;;
23400;SDS011;11873;49.300;8.920;2023-07-31T16:59:33;2.40;;;1.93;;
23400;SDS011;11873;49.300;8.920;2023-07-31T17:04:33;3.90;;;2.07;;
23400;SDS011;11873;49.300;8.920;2023-07-31T17:09:33;2.10;;;1.77;;
23400;SDS011;11873;49.300;8.920;2023-07-31T17:14:34;2.93;;;1.90;;
23400;SDS011;11873;49.300;8.920;2023-07-31T17:19:34;3.47;;;1.80;;
23400;SDS011;11873;49.300;8.920;2023-07-31T17:24:34;2.53;;;1.83;;
23400;SDS011;11873;49.300;8.920;2023-07-31T17:29:34;4.23;;;1.97;;
23400;SDS011;11873;49.300;8.920;2023-07-31T17:34:34;5.00;;;2.10;;
23400;SDS011;11873;49.300;8.920;2023-07-31T17:39:35;3.80;;;1.90;;
23400;SDS011;11873;49.300;8.920;2023-07-31T17:44:35;2.97;;;2.30;;
23400;SDS011;11873;49.300;8.920;2023-07-31T17:49:35;2.20;;;2.00;;
23400;SDS011;11873;49.300;8.920;2023-07-31T17:54:35;3.33;;;2.40;;
23400;SDS011;11873;49.300;8.920;2023-07-31T17:59:36;4.13;;;2.30;;
23400;SDS011;11873;49.300;8.920;2023-07-31T18:04:36;4.27;;;2.13;;
23400;SDS011;11873;49.300;8.920;2023-07-31T18:09:37;5.47;;;1.97;;
23400;SDS011;11873;49.300;8.920;2023-07-31T18:14:38;3.33;;;2.03;;
23400;SDS011;11873;49.300;8.920;2023-07-31T18:19:38;3.50;;;2.30;;
23400;SDS011;11873;49.300;8.920;2023-07-31T18:24:38;3.73;;;2.20;;
23400;SDS011;11873;49.300;8.920;2023-07-31T18:29:38;4.23;;;2.77;;
23400;SDS011;11873;49.300;8.920;2023-07-31T18:34:38;2.23;;;2.03;;
23400;SDS011;11873;49.300;8.920;2023-07-31T18:39:39;2.60;;;2.10;;
23400;SDS011;11873;49.300;8.920;2023-07-31T18:44:39;3.63;;;2.13;;
23400;SDS011;11873;49.300;8.920;2023-07-31T18:49:39;4.27;;;2.73;;
23400;SDS011;11873;49.300;8.920;2023-07-31T18:54:39;5.50;;;2.50;;
23400;SDS011;11873;49.300;8.920;2023-07-31T18:59:39;4.63;;;2.43;;
23400;SDS011;11873;49.300;8.920;2023-07-31T19:04:39;4.73;;;2.20;;
23400;SDS011;11873;49.300;8.920;2023-07-31T19:09:40;5.90;;;2.80;;
23400;SDS011;11873;49.300;8.920;2023-07-31T19:14:40;4.80;;;2.60;;
23400;SDS011;11873;49.300;8.920;2023-07-31T19:19:40;6.67;;;3.00;;
23400;SDS011;11873;49.300;8.920;2023-07-31T19:24:40;3.13;;;2.37;;
23400;SDS011;11873;49.300;8.920;2023-07-31T19:29:42;4.13;;;2.63;;
23400;SDS011;11873;49.300;8.920;2023-07-31T19:34:42;3.17;;;2.67;;
23400;SDS011;11873;49.300;8.920;2023-07-31T19:39:42;3.13;;;2.27;;
23400;SDS011;11873;49.300;8.920;2023-07-31T19:44:43;3.43;;;2.30;;
23400;SDS011;11873;49.300;8.920;2023-07-31T19:49:43;3.63;;;2.20;;
23400;SDS011;11873;49.300;8.920;2023-07-31T19:54:43;4.90;;;2.30;;
23400;SDS011;11873;49.300;8.920;2023-07-31T19:59:43;4.07;;;2.47;;
23400;SDS011;11873;49.300;8.920;2023-07-31T20:04:43;5.97;;;2.70;;
23400;SDS011;11873;49.300;8.920;2023-07-31T20:09:43;4.97;;;2.30;;
23400;SDS011;11873;49.300;8.920;2023-07-31T20:14:44;2.60;;;2.40;;
23400;SDS011;11873;49.300;8.920;2023-07-31T20:19:44;3.77;;;2.63;;
23400;SDS011;11873;49.300;8.920;2023-07-31T20:24:44;5.73;;;3.20;;
23400;SDS011;11873;49.300;8.920;2023-07-31T20:29:44;4.27;;;2.57;;
23400;SDS011;11873;49.300;8.920;2023-07-31T20:34:44;5.37;;;2.77;;
23400;SDS011;11873;49.300;8.920;2023-07-31T20:39:45;4.07;;;2.43;;
23400;SDS011;11873;49.300;8.920;2023-07-31T20:44:45;2.77;;;2.40;;
23400;SDS011;11873;49.300;8.920;2023-07-31T20:49:45;4.27;;;2.60;;
23400;SDS011;11873;49.300;8.920;2023-07-31T20:54:45;4.27;;;2.87;;
23400;SDS011;11873;49.300;8.920;2023-07-31T20:59:45;3.37;;;2.83;;
23400;SDS011;11873;49.300;8.920;2023-07-31T21:04:45;4.07;;;2.63;;
23400;SDS011;11873;49.300;8.920;2023-07-31T21:09:46;3.93;;;2.50;;
23400;SDS011;11873;49.300;8.920;2023-07-31T21:14:46;4.63;;;2.83;;
23400;SDS011;11873;49.300;8.920;2023-07-31T21:19:46;3.33;;;2.43;;
23400;SDS011;11873;49.300;8.920;2023-07-31T21:24:46;5.73;;;2.60;;
23400;SDS011;11873;49.300;8.920;2023-07-31T21:29:46;4.87;;;2.70;;
23400;SDS011;11873;49.300;8.920;2023-07-31T21:34:47;3.93;;;2.70;;
23400;SDS011;11873;49.300;8.920;2023-07-31T21:39:47;3.60;;;2.80;;
23400;SDS011;11873;49.300;8.920;2023-07-31T21:44:47;6.57;;;3.07;;
23400;SDS011;11873;49.300;8.920;2023-07-31T21:49:47;3.97;;;2.60;;
23400;SDS011;11873;49.300;8.920;2023-07-31T21:54:48;5.43;;;3.67;;
23400;SDS011;11873;49.300;8.920;2023-07-31T21:59:48;5.27;;;3.00;;
23400;SDS011;11873;49.300;8.920;2023-07-31T22:04:48;3.73;;;2.97;;
23400;SDS011;11873;49.300;8.920;2023-07-31T22:09:48;3.47;;;3.17;;
23400;SDS011;11873;49.300;8.920;2023-07-31T22:14:48;3.57;;;2.67;;
23400;SDS011;11873;49.300;8.920;2023-07-31T22:19:49;4.17;;;2.60;;
23400;SDS011;11873;49.300;8.920;2023-07-31T22:24:49;2.60;;;2.40;;
23400;SDS011;11873;49.300;8.920;2023-07-31T22:29:49;3.43;;;2.63;;
23400;SDS011;11873;49.300;8.920;2023-07-31T22:34:49;3.03;;;2.07;;
23400;SDS011;11873;49.300;8.920;2023-07-31T22:39:49;4.03;;;2.70;;
23400;SDS011;11873;49.300;8.920;2023-07-31T22:44:49;4.60;;;2.63;;
23400;SDS011;11873;49.300;8.920;2023-07-31T22:49:50;2.47;;;2.27;;
23400;SDS011;11873;49.300;8.920;2023-07-31T22:54:50;3.80;;;2.77;;
23400;SDS011;11873;49.300;8.920;2023-07-31T22:59:53;5.53;;;2.90;;
23400;SDS011;11873;49.300;8.920;2023-07-31T23:04:53;2.90;;;2.60;;
23400;SDS011;11873;49.300;8.920;2023-07-31T23:09:53;4.37;;;2.47;;
23400;SDS011;11873;49.300;8.920;2023-07-31T23:14:53;5.17;;;2.20;;
23400;SDS011;11873;49.300;8.920;2023-07-31T23:19:53;6.80;;;2.97;;
23400;SDS011;11873;49.300;8.920;2023-07-31T23:24:54;3.90;;;2.43;;
23400;SDS011;11873;49.300;8.920;2023-07-31T23:29:54;3.77;;;2.37;;
23400;SDS011;11873;49.300;8.920;2023-07-31T23:34:54;2.70;;;2.47;;
23400;SDS011;11873;49.300;8.920;2023-07-31T23:39:54;2.40;;;2.20;;
23400;SDS011;11873;49.300;8.920;2023-07-31T23:44:54;7.57;;;2.50;;
23400;SDS011;11873;49.300;8.920;2023-07-31T23:49:55;3.03;;;2.20;;
23400;SDS011;11873;49.300;8.920;2023-07-31T23:54:55;4.63;;;2.50;;
23400;SDS011;11873;49.300;8.920;2023-07-31T23:59:55;3.27;;;2.43;;
